Time;durP1;ratioP1;P1;durP2;ratioP2;P2;SDS_P1;SDS_P2;PMS_P1;PMS_P2;Temp;Humidity;BMP_temperature;BMP_pressure;BME280_temperature;BME280_humidity;BME280_pressure;Samples;Min_cycle;Max_cycle;Signal;HPM_P1;HPM_P2
2021/04/01 00:00:14;;;;;;;17.93;11.90;;;16.30;52.80;;;;;;4998488;28;20820;-53
2021/04/01 00:02:43;;;;;;;21.90;11.00;;;16.20;53.00;;;;;;4996243;28;20783;-46
2021/04/01 00:05:12;;;;;;;18.83;11.53;;;16.20;53.30;;;;;;4978978;28;20458;-52
2021/04/01 00:07:40;;;;;;;18.43;10.80;;;16.20;53.30;;;;;;4978938;28;20764;-53
2021/04/01 00:10:11;;;;;;;27.20;12.87;;;16.10;53.30;;;;;;4978950;28;20794;-51
2021/04/01 00:12:40;;;;;;;17.63;11.83;;;16.10;53.40;;;;;;4979029;28;20796;-53
2021/04/01 00:15:11;;;;;;;14.47;10.57;;;16.10;53.30;;;;;;4979015;28;20792;-46
2021/04/01 00:17:41;;;;;;;23.13;10.90;;;16.00;53.30;;;;;;4978878;28;20841;-55
2021/04/01 00:20:13;;;;;;;18.13;11.00;;;16.00;53.70;;;;;;4979055;28;20768;-52
2021/04/01 00:22:42;;;;;;;16.00;10.67;;;15.90;53.70;;;;;;4979088;28;20838;-53
2021/04/01 00:25:12;;;;;;;16.07;10.83;;;15.90;54.00;;;;;;4978698;28;20770;-51
2021/04/01 00:27:40;;;;;;;14.70;10.00;;;15.80;54.10;;;;;;4978677;28;20793;-52
2021/04/01 00:30:11;;;;;;;15.97;10.33;;;15.80;54.20;;;;;;4979089;28;20792;-50
2021/04/01 00:32:40;;;;;;;15.17;9.33;;;15.70;54.30;;;;;;4978952;28;20769;-52
2021/04/01 00:35:09;;;;;;;19.63;10.60;;;15.70;54.30;;;;;;4979127;28;20475;-52
2021/04/01 00:37:38;;;;;;;16.20;10.00;;;15.70;54.30;;;;;;4979099;28;20915;-53
2021/04/01 00:40:08;;;;;;;16.43;9.40;;;15.60;54.40;;;;;;4978993;28;20816;-54
2021/04/01 00:42:38;;;;;;;20.50;10.77;;;15.60;54.60;;;;;;4962827;28;20840;-47
2021/04/01 00:45:08;;;;;;;15.57;11.10;;;15.50;54.70;;;;;;4978706;28;20835;-54
2021/04/01 00:47:41;;;;;;;12.70;9.80;;;15.40;54.90;;;;;;4978727;28;20971;-51
2021/04/01 00:50:12;;;;;;;12.10;9.23;;;15.40;55.00;;;;;;4978739;28;20802;-52
2021/04/01 00:52:40;;;;;;;15.20;9.47;;;15.40;55.30;;;;;;4978875;28;20478;-53
2021/04/01 00:55:10;;;;;;;17.10;10.00;;;15.30;55.50;;;;;;4978474;28;20509;-49
2021/04/01 00:57:40;;;;;;;17.53;10.53;;;15.30;55.50;;;;;;4978447;28;20747;-54
2021/04/01 01:00:12;;;;;;;18.27;11.10;;;15.20;55.70;;;;;;4978005;28;20815;-53
2021/04/01 01:02:42;;;;;;;22.27;10.67;;;15.30;55.50;;;;;;4977766;28;20866;-47
2021/04/01 01:05:13;;;;;;;14.33;9.97;;;15.20;55.60;;;;;;4978015;28;20800;-52
2021/04/01 01:07:42;;;;;;;19.33;10.73;;;15.10;55.70;;;;;;4978011;28;21035;-54
2021/04/01 01:10:13;;;;;;;16.90;8.80;;;15.00;55.80;;;;;;4977494;28;20813;-53
2021/04/01 01:12:42;;;;;;;15.13;8.60;;;15.00;56.10;;;;;;4978209;28;20749;-52
2021/04/01 01:15:12;;;;;;;14.63;9.67;;;15.10;56.30;;;;;;4978377;28;20787;-49
2021/04/01 01:17:43;;;;;;;15.50;9.83;;;15.00;56.40;;;;;;4978451;28;20784;-53
2021/04/01 01:20:13;;;;;;;13.63;9.30;;;15.00;56.40;;;;;;4978374;28;20888;-50
2021/04/01 01:22:44;;;;;;;16.10;10.57;;;14.90;56.60;;;;;;4977909;28;20540;-52
2021/04/01 01:25:15;;;;;;;15.27;10.00;;;14.90;56.60;;;;;;4978004;28;20858;-52
2021/04/01 01:27:44;;;;;;;18.20;10.53;;;14.90;56.60;;;;;;4977704;28;20474;-51
2021/04/01 01:30:14;;;;;;;14.17;9.30;;;14.80;56.70;;;;;;4977734;28;20801;-52
2021/04/01 01:32:45;;;;;;;13.83;9.57;;;14.80;57.60;;;;;;4978205;28;20769;-53
2021/04/01 01:35:19;;;;;;;14.90;8.77;;;14.80;57.00;;;;;;4977794;28;20912;-51
2021/04/01 01:37:54;;;;;;;14.60;9.03;;;14.70;57.30;;;;;;4977794;28;20792;-53
2021/04/01 01:40:25;;;;;;;15.23;9.87;;;14.70;57.60;;;;;;4977717;28;20785;-52
2021/04/01 01:42:56;;;;;;;16.27;9.67;;;14.70;57.70;;;;;;4978022;28;20785;-46
2021/04/01 01:45:25;;;;;;;16.10;9.70;;;14.60;57.90;;;;;;4977810;28;20844;-46
2021/04/01 01:47:53;;;;;;;17.03;9.50;;;14.60;57.80;;;;;;4977894;28;20852;-52
2021/04/01 01:50:24;;;;;;;16.33;9.70;;;14.60;58.10;;;;;;4977510;28;20836;-52
2021/04/01 01:52:52;;;;;;;15.80;10.30;;;14.50;58.20;;;;;;4977587;28;20788;-53
2021/04/01 01:55:21;;;;;;;14.93;9.13;;;14.50;58.30;;;;;;4978046;28;20849;-55
2021/04/01 01:57:51;;;;;;;15.50;10.07;;;14.50;58.60;;;;;;4978529;28;20825;-47
2021/04/01 02:00:22;;;;;;;16.67;9.73;;;14.40;58.50;;;;;;4977844;28;20781;-50
2021/04/01 02:02:55;;;;;;;19.37;10.30;;;14.40;58.50;;;;;;4977213;28;20777;-54
2021/04/01 02:05:25;;;;;;;18.27;10.00;;;14.40;58.80;;;;;;4977518;28;20470;-54
2021/04/01 02:07:56;;;;;;;17.60;10.30;;;14.40;59.10;;;;;;4977645;28;20807;-51
2021/04/01 02:10:27;;;;;;;17.03;9.60;;;14.30;59.20;;;;;;4977976;28;20466;-52
2021/04/01 02:12:57;;;;;;;15.70;9.47;;;14.30;59.10;;;;;;4977696;28;20844;-51
2021/04/01 02:15:28;;;;;;;16.50;10.70;;;14.20;59.00;;;;;;4978199;28;20923;-47
2021/04/01 02:18:07;;;;;;;13.67;9.37;;;14.20;59.20;;;;;;4977308;28;20882;-53
2021/04/01 02:20:41;;;;;;;14.37;9.90;;;14.30;59.30;;;;;;4977388;28;20872;-52
2021/04/01 02:23:11;;;;;;;18.00;10.00;;;14.30;59.10;;;;;;4977092;28;20821;-53
2021/04/01 02:25:40;;;;;;;18.67;10.37;;;14.30;59.20;;;;;;4977356;28;20831;-46
2021/04/01 02:28:10;;;;;;;16.37;10.00;;;14.30;59.20;;;;;;4977276;28;20803;-50
2021/04/01 02:30:41;;;;;;;17.27;9.07;;;14.40;59.20;;;;;;4976894;28;20506;-52
2021/04/01 02:33:11;;;;;;;15.73;9.70;;;14.40;59.00;;;;;;4976572;28;20475;-52
2021/04/01 02:35:40;;;;;;;14.97;10.27;;;14.40;59.20;;;;;;4977159;28;20792;-53
2021/04/01 02:38:09;;;;;;;15.57;10.70;;;14.40;59.10;;;;;;4976986;28;20755;-50
2021/04/01 02:40:38;;;;;;;18.07;9.40;;;14.40;59.30;;;;;;4976521;28;21175;-51
2021/04/01 02:43:08;;;;;;;14.97;8.87;;;14.40;59.30;;;;;;4977128;28;20919;-47
2021/04/01 02:45:37;;;;;;;18.03;9.73;;;14.40;59.10;;;;;;4977005;28;20459;-55
2021/04/01 02:48:06;;;;;;;15.63;10.00;;;14.40;59.30;;;;;;4976943;28;20786;-48
2021/04/01 02:50:34;;;;;;;15.90;9.90;;;14.40;59.20;;;;;;4976577;28;20855;-48
2021/04/01 02:53:03;;;;;;;15.43;9.23;;;14.40;59.30;;;;;;4977676;28;20836;-48
2021/04/01 02:55:32;;;;;;;17.33;9.70;;;14.30;59.40;;;;;;4976633;28;20844;-51
2021/04/01 02:58:00;;;;;;;18.83;10.17;;;14.30;59.40;;;;;;4976537;28;20851;-51
2021/04/01 03:00:32;;;;;;;13.20;8.60;;;14.30;59.60;;;;;;4976863;28;20801;-50
2021/04/01 03:03:03;;;;;;;18.27;9.67;;;14.30;60.30;;;;;;4976241;28;20936;-51
2021/04/01 03:05:32;;;;;;;14.60;9.60;;;14.20;60.40;;;;;;4976466;28;20962;-51
2021/04/01 03:08:00;;;;;;;20.53;10.40;;;14.20;60.40;;;;;;4976273;28;20812;-50
2021/04/01 03:10:29;;;;;;;14.43;9.63;;;14.20;60.60;;;;;;4976397;28;20807;-54
2021/04/01 03:12:57;;;;;;;17.30;9.80;;;14.20;61.80;;;;;;4976905;28;20785;-48
2021/04/01 03:15:26;;;;;;;13.30;8.43;;;14.10;61.20;;;;;;4976296;28;20541;-50
2021/04/01 03:17:56;;;;;;;14.37;9.97;;;14.10;61.80;;;;;;4976292;28;20763;-53
2021/04/01 03:20:24;;;;;;;18.07;11.10;;;14.10;61.90;;;;;;4977334;28;20785;-48
2021/04/01 03:22:52;;;;;;;21.37;12.00;;;14.10;62.90;;;;;;4976722;28;20804;-56
2021/04/01 03:25:20;;;;;;;17.40;9.40;;;14.10;62.50;;;;;;4976353;28;20908;-52
2021/04/01 03:27:49;;;;;;;16.63;9.80;;;14.10;62.20;;;;;;4976191;28;20841;-54
2021/04/01 03:30:17;;;;;;;17.10;9.33;;;14.10;62.80;;;;;;4976048;28;20860;-55
2021/04/01 03:32:47;;;;;;;14.00;9.60;;;14.10;62.90;;;;;;4977265;28;20904;-51
2021/04/01 03:35:19;;;;;;;18.77;10.30;;;14.10;63.10;;;;;;4980151;28;20816;-50
2021/04/01 03:37:50;;;;;;;16.10;9.73;;;14.20;63.30;;;;;;4980167;28;20892;-50
2021/04/01 03:40:19;;;;;;;14.30;9.13;;;14.10;62.90;;;;;;4979848;28;20840;-48
2021/04/01 03:42:48;;;;;;;14.13;9.40;;;14.10;63.10;;;;;;4980184;28;20434;-54
2021/04/01 03:45:16;;;;;;;15.57;9.30;;;14.00;63.30;;;;;;4980193;28;20464;-47
2021/04/01 03:47:45;;;;;;;15.83;8.90;;;14.10;63.70;;;;;;4980285;28;20907;-49
2021/04/01 03:50:16;;;;;;;15.67;9.50;;;14.10;64.10;;;;;;4980446;28;20883;-50
2021/04/01 03:52:45;;;;;;;20.23;9.50;;;14.00;64.00;;;;;;4980492;28;20920;-50
2021/04/01 03:55:25;;;;;;;19.23;9.87;;;14.10;64.30;;;;;;4980169;28;20789;-50
2021/04/01 03:57:57;;;;;;;20.40;9.90;;;14.00;64.60;;;;;;4979835;28;20830;-49
2021/04/01 04:00:28;;;;;;;15.80;8.93;;;14.10;65.20;;;;;;4979998;28;20896;-53
2021/04/01 04:03:05;;;;;;;16.70;9.53;;;14.10;65.80;;;;;;4983344;28;20958;-51
2021/04/01 04:05:39;;;;;;;15.70;9.50;;;14.10;65.50;;;;;;4999326;28;20934;-52
2021/04/01 04:08:36;;;;;;;20.97;10.70;;;14.10;65.80;;;;;;4999351;28;20473;-48
2021/04/01 04:11:16;;;;;;;16.73;9.60;;;14.10;65.80;;;;;;4999095;28;20778;-49
2021/04/01 04:13:48;;;;;;;14.03;8.90;;;14.20;66.30;;;;;;4999822;28;20922;-45
2021/04/01 04:16:17;;;;;;;15.80;10.40;;;14.10;66.20;;;;;;4999721;28;20497;-47
2021/04/01 04:18:46;;;;;;;20.47;10.63;;;14.10;66.00;;;;;;4999461;28;20779;-52
2021/04/01 04:21:17;;;;;;;19.27;11.00;;;14.10;66.30;;;;;;4998614;28;20810;-50
2021/04/01 04:23:47;;;;;;;17.13;9.70;;;14.20;66.40;;;;;;4998461;28;20859;-50
2021/04/01 04:26:18;;;;;;;20.10;10.40;;;14.20;66.40;;;;;;4999107;28;20911;-53
2021/04/01 04:28:46;;;;;;;18.37;11.20;;;14.20;66.30;;;;;;4999012;28;20873;-54
2021/04/01 04:31:14;;;;;;;19.50;9.93;;;14.20;67.00;;;;;;4999477;28;20852;-51
2021/04/01 04:33:43;;;;;;;19.20;10.57;;;14.20;66.30;;;;;;4999403;28;20837;-47
2021/04/01 04:36:12;;;;;;;26.83;10.97;;;14.30;66.80;;;;;;4998746;28;20862;-54
2021/04/01 04:38:42;;;;;;;19.37;10.50;;;14.30;67.00;;;;;;4998722;28;20462;-51
2021/04/01 04:41:11;;;;;;;17.93;11.10;;;14.30;66.70;;;;;;4998666;28;20809;-52
2021/04/01 04:43:39;;;;;;;21.40;10.57;;;14.40;66.60;;;;;;4998709;28;20935;-51
2021/04/01 04:46:08;;;;;;;20.37;10.40;;;14.40;66.40;;;;;;4997697;28;20846;-48
2021/04/01 04:48:36;;;;;;;16.77;10.00;;;14.40;66.60;;;;;;4998319;28;20481;-51
2021/04/01 04:51:04;;;;;;;16.70;10.43;;;14.40;66.80;;;;;;4998327;28;20846;-53
2021/04/01 04:53:32;;;;;;;24.13;12.00;;;14.40;66.40;;;;;;4998327;28;20796;-52
2021/04/01 04:56:08;;;;;;;21.00;11.93;;;14.40;66.60;;;;;;4998531;28;20783;-52
2021/04/01 04:58:41;;;;;;;18.70;10.50;;;14.50;66.50;;;;;;4998063;28;20931;-47
2021/04/01 05:04:37;;;;;;;20.80;10.53;;;14.40;66.80;;;;;;4998583;28;20891;-49
2021/04/01 05:06:54;;;;;;;17.80;10.73;;;14.40;67.20;;;;;;4978910;28;20466;-49
2021/04/01 05:09:22;;;;;;;15.17;10.40;;;14.40;67.30;;;;;;4978898;28;20561;-50
2021/04/01 05:11:52;;;;;;;19.10;11.17;;;14.40;67.50;;;;;;4978541;28;20869;-49
2021/04/01 05:14:21;;;;;;;20.40;11.83;;;14.40;68.00;;;;;;4978886;28;20474;-52
2021/04/01 05:16:49;;;;;;;19.93;11.63;;;14.50;67.80;;;;;;4978644;28;20797;-52
2021/04/01 05:19:19;;;;;;;25.00;11.60;;;14.50;67.90;;;;;;4978733;28;20835;-49
2021/04/01 05:21:54;;;;;;;20.57;11.53;;;14.50;68.00;;;;;;4978468;28;20904;-51
2021/04/01 05:24:25;;;;;;;21.93;10.83;;;14.50;68.40;;;;;;4978526;28;20893;-49
2021/04/01 05:29:40;;;;;;;17.67;10.93;;;14.50;68.50;;;;;;4978198;28;20466;-49
2021/04/01 10:51:08;;;;;;;35.57;20.70;;;19.30;61.10;;;;;;5216151;23;20525;-49
2021/04/01 10:53:40;;;;;;;37.73;21.10;;;19.30;60.50;;;;;;4983182;28;20843;-50
2021/04/01 10:56:08;;;;;;;37.27;21.40;;;19.10;59.60;;;;;;4987875;28;20851;-49
2021/04/01 10:58:35;;;;;;;41.67;23.73;;;18.90;59.90;;;;;;4978128;28;20545;-49
2021/04/01 11:01:05;;;;;;;39.10;22.20;;;18.90;59.80;;;;;;4977735;28;20784;-49
2021/04/01 11:03:37;;;;;;;41.00;24.93;;;18.90;59.60;;;;;;5042933;23;20574;-51
2021/04/01 11:06:06;;;;;;;39.03;22.47;;;18.80;59.90;;;;;;5010688;23;20489;-44
2021/04/01 11:08:41;;;;;;;38.17;22.87;;;18.80;59.80;;;;;;5009145;28;20470;-49
2021/04/01 11:11:09;;;;;;;40.63;23.50;;;18.70;59.10;;;;;;5002171;28;20452;-46
2021/04/01 11:13:38;;;;;;;47.50;23.00;;;18.70;59.10;;;;;;5010370;28;20450;-44
2021/04/01 11:16:07;;;;;;;41.47;22.00;;;18.70;59.80;;;;;;5010798;28;20529;-48
2021/04/01 11:18:35;;;;;;;38.67;21.70;;;18.70;61.40;;;;;;5010367;28;20442;-51
2021/04/01 11:21:06;;;;;;;37.30;20.27;;;18.70;62.70;;;;;;5010395;28;20446;-48
2021/04/01 11:23:38;;;;;;;36.47;21.40;;;18.70;66.20;;;;;;5010311;28;20442;-47
2021/04/01 11:26:04;;;;;;;43.00;21.10;;;18.70;65.80;;;;;;5006669;28;20446;-53
2021/04/01 11:28:35;;;;;;;39.17;21.97;;;18.80;64.50;;;;;;5001418;28;20482;-50
2021/04/01 11:31:08;;;;;;;35.07;20.33;;;18.80;64.50;;;;;;5008137;28;20481;-54
2021/04/01 11:33:37;;;;;;;39.10;22.00;;;18.90;63.60;;;;;;5004508;28;20450;-53
2021/04/01 11:36:09;;;;;;;35.30;20.50;;;19.00;62.10;;;;;;5009048;28;20446;-51
2021/04/01 11:38:44;;;;;;;40.97;22.20;;;18.90;61.00;;;;;;5000217;28;20795;-51
2021/04/01 11:41:17;;;;;;;40.13;20.20;;;18.90;59.40;;;;;;5004250;28;20449;-52
2021/04/01 11:43:46;;;;;;;39.70;21.77;;;18.90;59.60;;;;;;5007618;28;20531;-53
2021/04/01 11:46:34;;;;;;;40.87;22.20;;;18.80;61.60;;;;;;5006541;28;20472;-47
2021/04/01 11:49:01;;;;;;;42.17;22.47;;;18.80;63.40;;;;;;5006903;28;20498;-54
2021/04/01 11:51:35;;;;;;;37.40;20.57;;;18.80;64.70;;;;;;5005152;28;20453;-51
2021/04/01 11:54:04;;;;;;;36.40;21.97;;;18.80;65.20;;;;;;4999180;28;20443;-50
2021/04/01 11:56:35;;;;;;;40.20;22.47;;;18.70;66.20;;;;;;4998700;28;20573;-48
2021/04/01 11:59:06;;;;;;;36.50;20.40;;;18.60;66.30;;;;;;4999518;28;20450;-49
2021/04/01 12:01:36;;;;;;;48.17;20.57;;;18.50;64.60;;;;;;5001555;28;20453;-51
2021/04/01 12:04:06;;;;;;;40.60;20.97;;;18.40;63.90;;;;;;5003984;28;20466;-50
2021/04/01 12:06:34;;;;;;;36.03;19.10;;;18.40;64.40;;;;;;4981691;28;20454;-49
2021/04/01 12:09:01;;;;;;;38.10;19.87;;;18.40;63.50;;;;;;4992712;28;21054;-51
2021/04/01 12:11:38;;;;;;;34.17;18.03;;;18.50;63.50;;;;;;4988315;28;20930;-53
2021/04/01 12:14:08;;;;;;;33.80;16.50;;;18.50;64.10;;;;;;4982391;28;20489;-51
2021/04/01 12:16:35;;;;;;;38.07;19.47;;;18.50;64.70;;;;;;4984212;28;20459;-49
2021/04/01 12:19:01;;;;;;;35.40;19.10;;;18.50;65.40;;;;;;4992451;28;20456;-48
2021/04/01 12:21:28;;;;;;;34.73;16.90;;;18.40;64.40;;;;;;4990209;28;20474;-50
2021/04/01 12:24:01;;;;;;;33.23;17.93;;;18.40;63.70;;;;;;4985451;28;20446;-50
2021/04/01 12:26:29;;;;;;;28.20;17.17;;;18.40;62.40;;;;;;4992632;28;20472;-49
2021/04/01 12:28:57;;;;;;;36.30;18.53;;;18.30;62.30;;;;;;4984548;28;20482;-52
2021/04/01 12:31:29;;;;;;;38.47;20.27;;;18.30;62.20;;;;;;4989869;28;20481;-53
2021/04/01 12:33:55;;;;;;;40.23;20.27;;;18.30;61.90;;;;;;4987350;28;20450;-49
2021/04/01 12:36:29;;;;;;;35.90;20.00;;;18.20;61.30;;;;;;4979151;28;20446;-48
2021/04/01 12:38:57;;;;;;;32.77;18.93;;;18.20;60.80;;;;;;4985660;28;20529;-51
2021/04/01 12:41:26;;;;;;;37.30;18.77;;;18.10;60.50;;;;;;4983241;28;20454;-48
2021/04/01 12:43:53;;;;;;;36.30;18.23;;;18.00;60.70;;;;;;4979054;28;20928;-46
2021/04/01 12:46:20;;;;;;;37.50;18.47;;;18.10;60.30;;;;;;4984211;28;20463;-45
2021/04/01 12:48:48;;;;;;;39.40;20.50;;;18.10;60.00;;;;;;4987956;28;20493;-53
2021/04/01 12:51:18;;;;;;;41.27;21.70;;;18.40;59.40;;;;;;4985703;28;20464;-46
2021/04/01 12:53:54;;;;;;;45.03;20.13;;;18.60;58.50;;;;;;4990473;28;20461;-49
2021/04/01 12:56:26;;;;;;;36.23;17.90;;;18.70;57.90;;;;;;4990363;28;20489;-47
2021/04/01 12:58:57;;;;;;;32.90;19.20;;;18.90;57.70;;;;;;4992359;28;20749;-48
2021/04/01 13:01:27;;;;;;;37.87;19.37;;;18.90;57.70;;;;;;4987902;28;21106;-49
2021/04/01 13:03:54;;;;;;;34.97;19.90;;;19.10;57.80;;;;;;4984011;28;20458;-49
2021/04/01 13:06:24;;;;;;;35.80;19.77;;;19.30;58.20;;;;;;4994168;28;20477;-50
2021/04/01 13:08:55;;;;;;;43.47;23.07;;;19.30;58.50;;;;;;4983599;28;20574;-45
2021/04/01 13:11:23;;;;;;;37.30;20.47;;;19.50;59.90;;;;;;4979770;28;20758;-52
2021/04/01 13:13:49;;;;;;;38.40;22.30;;;19.40;61.00;;;;;;4992485;28;20907;-54
2021/04/01 13:16:16;;;;;;;36.33;20.77;;;19.30;61.50;;;;;;4982923;28;20447;-54
2021/04/01 13:18:42;;;;;;;42.43;23.17;;;19.40;62.60;;;;;;4986775;28;20455;-49
2021/04/01 13:21:29;;;;;;;49.60;23.60;;;19.40;63.30;;;;;;4986156;28;20465;-48
2021/04/01 13:24:01;;;;;;;36.37;22.67;;;19.40;63.60;;;;;;4987330;28;20446;-48
2021/04/01 13:26:30;;;;;;;46.70;25.50;;;19.50;63.50;;;;;;4987652;28;20517;-46
2021/04/01 13:28:56;;;;;;;39.20;22.40;;;19.40;63.30;;;;;;4978460;28;20506;-49
2021/04/01 13:31:31;;;;;;;41.07;22.97;;;19.30;62.90;;;;;;4976493;28;20450;-45
2021/04/01 13:34:01;;;;;;;42.90;25.30;;;19.20;62.60;;;;;;4981713;28;20450;-48
2021/04/01 13:36:32;;;;;;;44.57;24.60;;;19.20;62.70;;;;;;4988886;28;20461;-52
2021/04/01 13:38:59;;;;;;;39.60;23.70;;;19.10;62.20;;;;;;4988421;28;20775;-54
2021/04/01 13:41:38;;;;;;;44.77;22.97;;;19.00;61.90;;;;;;4985996;28;20511;-49
2021/04/01 13:44:08;;;;;;;45.57;23.57;;;18.90;60.60;;;;;;4988850;28;20473;-51
2021/04/01 13:46:34;;;;;;;49.70;25.33;;;18.80;59.60;;;;;;4986397;28;20782;-50
2021/04/01 13:49:02;;;;;;;53.77;24.20;;;18.70;58.60;;;;;;4986194;28;20478;-54
2021/04/01 13:51:29;;;;;;;45.27;24.00;;;18.60;59.10;;;;;;4982059;28;20465;-51
2021/04/01 13:54:06;;;;;;;45.37;24.63;;;18.50;60.10;;;;;;4984886;28;20451;-52
2021/04/01 13:56:40;;;;;;;39.40;23.03;;;18.50;63.60;;;;;;4978069;28;20457;-46
2021/04/01 13:59:23;;;;;;;46.73;25.30;;;18.40;66.20;;;;;;4982928;28;20501;-53
2021/04/01 14:10:11;;;;;;;41.43;26.03;;;18.10;72.00;;;;;;4994937;28;20512;-45
2021/04/01 14:12:37;;;;;;;39.23;24.87;;;18.20;72.80;;;;;;4988536;28;20994;-49
2021/04/01 14:15:10;;;;;;;46.30;26.00;;;18.20;73.10;;;;;;4986686;28;20462;-44
2021/04/01 14:17:38;;;;;;;41.37;24.90;;;18.20;72.60;;;;;;4973648;28;20453;-46
2021/04/01 14:20:11;;;;;;;49.77;30.17;;;18.10;73.10;;;;;;4991294;28;20501;-46
2021/04/01 14:22:41;;;;;;;43.83;25.43;;;18.00;74.00;;;;;;4977079;28;20455;-50
2021/04/01 14:25:15;;;;;;;44.03;25.73;;;17.90;74.90;;;;;;4977106;28;20451;-52
2021/04/01 14:27:44;;;;;;;45.13;26.23;;;17.80;74.40;;;;;;4989042;28;20449;-49
2021/04/01 14:30:21;;;;;;;42.13;25.60;;;17.60;75.40;;;;;;4994982;28;20585;-53
2021/04/01 14:32:48;;;;;;;44.93;26.67;;;17.50;76.40;;;;;;4989786;28;20933;-49
2021/04/01 14:35:14;;;;;;;40.77;26.17;;;17.60;76.90;;;;;;4981228;28;20758;-51
2021/04/01 14:37:42;;;;;;;51.67;28.30;;;17.50;77.30;;;;;;4983445;28;20451;-49
2021/04/01 14:40:10;;;;;;;43.03;26.37;;;17.60;76.90;;;;;;4978727;28;20919;-49
2021/04/01 14:42:39;;;;;;;48.73;28.30;;;17.70;76.70;;;;;;4972184;28;20451;-51
2021/04/01 14:45:09;;;;;;;55.50;29.83;;;17.70;76.00;;;;;;4987070;28;20517;-50
2021/04/01 14:47:36;;;;;;;45.17;26.13;;;17.60;76.00;;;;;;4982077;28;20490;-45
2021/04/01 14:50:08;;;;;;;52.43;28.87;;;17.40;74.60;;;;;;4981950;28;20782;-48
2021/04/01 14:52:35;;;;;;;49.50;28.53;;;17.30;75.50;;;;;;4976373;28;20482;-47
2021/04/01 14:55:04;;;;;;;45.43;27.47;;;17.20;75.20;;;;;;4984129;28;20541;-48
2021/04/01 14:57:33;;;;;;;44.97;28.43;;;17.10;76.10;;;;;;4981681;28;20454;-48
2021/04/01 15:00:05;;;;;;;56.23;29.67;;;17.10;76.70;;;;;;4976626;28;20454;-49
2021/04/01 15:02:32;;;;;;;49.13;29.37;;;17.20;77.50;;;;;;4980254;28;20477;-53
2021/04/01 15:05:02;;;;;;;44.90;27.63;;;17.30;77.10;;;;;;4977443;28;20494;-51
2021/04/01 15:07:29;;;;;;;49.67;27.20;;;17.30;77.80;;;;;;4976861;28;20450;-49
2021/04/01 15:09:55;;;;;;;51.83;30.20;;;17.30;77.70;;;;;;4976572;28;20500;-55
2021/04/01 15:12:22;;;;;;;50.50;30.50;;;17.30;78.00;;;;;;4976683;28;20462;-47
2021/04/01 15:14:50;;;;;;;48.57;30.60;;;17.30;77.80;;;;;;4977093;28;20541;-45
2021/04/01 15:17:17;;;;;;;52.53;29.17;;;17.30;77.90;;;;;;4976616;28;20509;-46
2021/04/01 15:19:45;;;;;;;51.53;29.10;;;17.30;78.00;;;;;;4976601;28;20485;-51
2021/04/01 15:22:12;;;;;;;47.47;28.43;;;17.30;77.90;;;;;;4976584;28;20451;-50
2021/04/01 15:24:38;;;;;;;55.23;32.10;;;17.20;78.30;;;;;;4975518;28;20447;-48
2021/04/01 15:27:05;;;;;;;51.53;30.27;;;17.20;79.10;;;;;;4976252;28;20469;-49
2021/04/01 15:29:31;;;;;;;54.53;29.50;;;17.20;79.50;;;;;;4978725;28;20485;-53
2021/04/01 15:31:58;;;;;;;50.50;24.67;;;17.20;81.40;;;;;;4980192;28;20514;-45
2021/04/01 15:34:24;;;;;;;48.73;27.23;;;17.00;85.20;;;;;;4979671;28;20525;-48
2021/04/01 15:36:50;;;;;;;36.73;22.60;;;16.80;88.90;;;;;;4980232;28;20467;-53
2021/04/01 15:39:17;;;;;;;34.57;19.20;;;16.60;91.00;;;;;;4981520;28;20763;-50
2021/04/01 15:41:43;;;;;;;33.70;19.57;;;16.40;93.10;;;;;;4985098;28;20443;-52
2021/04/01 15:44:10;;;;;;;28.50;18.70;;;16.20;95.20;;;;;;4980583;28;20522;-50
2021/04/01 15:46:36;;;;;;;31.73;19.93;;;16.10;97.40;;;;;;4980428;28;20822;-52
2021/04/01 15:49:03;;;;;;;30.90;17.63;;;16.00;99.00;;;;;;4982697;28;20508;-53
2021/04/01 15:51:30;;;;;;;30.00;17.17;;;15.80;99.90;;;;;;4980539;28;20509;-49
2021/04/01 15:53:56;;;;;;;31.90;18.20;;;15.50;99.90;;;;;;4980417;28;20458;-48
2021/04/01 15:56:23;;;;;;;29.80;17.87;;;15.40;99.90;;;;;;4982744;28;20451;-53
2021/04/01 15:58:50;;;;;;;40.77;23.20;;;15.20;99.90;;;;;;4979543;28;20431;-47
2021/04/01 16:01:16;;;;;;;39.77;23.63;;;15.00;99.90;;;;;;4980838;28;20912;-51
2021/04/01 16:03:42;;;;;;;45.10;25.60;;;14.90;99.90;;;;;;4982749;28;20776;-47
2021/04/01 16:06:09;;;;;;;37.93;24.60;;;14.70;99.90;;;;;;4992477;28;20556;-48
2021/04/01 16:08:35;;;;;;;34.13;20.27;;;14.60;99.90;;;;;;4995849;28;20593;-50
2021/04/01 16:11:02;;;;;;;29.63;17.80;;;14.50;99.90;;;;;;4994723;28;20462;-48
2021/04/01 16:13:30;;;;;;;35.63;16.57;;;14.20;99.90;;;;;;4989276;28;20915;-53
2021/04/01 16:15:56;;;;;;;33.50;16.30;;;13.90;99.90;;;;;;4989961;28;20456;-46
2021/04/01 16:18:23;;;;;;;24.80;14.87;;;13.70;99.90;;;;;;4993252;28;20460;-51
2021/04/01 16:20:49;;;;;;;35.03;16.53;;;13.40;99.90;;;;;;4990697;28;20927;-47
2021/04/01 16:23:15;;;;;;;25.67;15.00;;;13.30;99.90;;;;;;4990159;28;20477;-51
2021/04/01 16:25:41;;;;;;;29.90;15.70;;;13.20;99.90;;;;;;4982069;28;20447;-51
2021/04/01 16:28:11;;;;;;;29.70;16.47;;;13.10;99.90;;;;;;4991209;28;20451;-53
2021/04/01 16:30:38;;;;;;;28.37;16.03;;;13.10;99.90;;;;;;4985800;28;20439;-49
2021/04/01 16:33:10;;;;;;;24.93;14.60;;;13.10;99.90;;;;;;4983366;28;20439;-50
2021/04/01 16:35:37;;;;;;;25.93;14.77;;;13.10;99.90;;;;;;4990500;28;20788;-49
2021/04/01 16:38:05;;;;;;;25.13;13.70;;;13.10;99.90;;;;;;4982780;28;20537;-47
2021/04/01 16:40:31;;;;;;;22.60;13.73;;;13.10;99.90;;;;;;4986851;28;20486;-50
2021/04/01 16:43:01;;;;;;;24.03;11.97;;;13.10;99.90;;;;;;4997315;28;20458;-46
2021/04/01 16:45:27;;;;;;;19.63;12.67;;;13.00;99.90;;;;;;4987534;28;20532;-49
2021/04/01 16:47:54;;;;;;;23.30;13.83;;;12.90;99.90;;;;;;4992999;28;20826;-47
2021/04/01 16:50:23;;;;;;;41.53;13.60;;;12.90;99.90;;;;;;4992522;28;20921;-48
2021/04/01 16:53:03;;;;;;;24.00;13.77;;;12.90;99.90;;;;;;4990492;28;20755;-47
2021/04/01 16:55:32;;;;;;;20.37;12.80;;;12.90;99.90;;;;;;4985685;28;20989;-52
2021/04/01 16:57:59;;;;;;;22.53;12.77;;;12.90;99.90;;;;;;4993684;28;20442;-52
2021/04/01 17:00:26;;;;;;;23.67;11.43;;;12.90;99.90;;;;;;4988412;28;20468;-53
2021/04/01 17:02:52;;;;;;;23.00;12.70;;;12.80;99.90;;;;;;4977940;28;20927;-47
2021/04/01 17:05:19;;;;;;;20.20;10.77;;;12.90;99.90;;;;;;4994065;28;20495;-49
2021/04/01 17:07:47;;;;;;;20.57;11.70;;;12.80;99.90;;;;;;4999559;28;20447;-54
2021/04/01 17:10:13;;;;;;;19.33;10.53;;;12.80;99.90;;;;;;5002039;28;20482;-49
2021/04/01 17:12:39;;;;;;;26.97;13.03;;;12.80;99.90;;;;;;5014324;28;20449;-54
2021/04/01 17:15:07;;;;;;;18.23;9.10;;;12.70;99.90;;;;;;5013728;28;20442;-50
2021/04/01 17:17:36;;;;;;;13.83;8.57;;;12.60;99.90;;;;;;5012577;28;20450;-44
2021/04/01 17:20:06;;;;;;;15.80;7.93;;;12.60;99.90;;;;;;5024728;28;20448;-49
2021/04/01 17:22:33;;;;;;;11.33;7.53;;;12.50;99.90;;;;;;5018463;28;20442;-55
2021/04/01 17:25:01;;;;;;;13.60;8.50;;;12.30;99.90;;;;;;5016520;28;20434;-52
2021/04/01 17:27:34;;;;;;;13.87;8.00;;;12.30;99.90;;;;;;5012928;28;20445;-52
2021/04/01 17:30:01;;;;;;;10.67;6.60;;;12.20;99.90;;;;;;5012485;28;20499;-50
2021/04/01 17:32:27;;;;;;;15.63;6.83;;;12.10;99.90;;;;;;5014299;28;20448;-54
2021/04/01 17:34:53;;;;;;;13.13;7.17;;;12.10;99.90;;;;;;5014760;28;20461;-51
2021/04/01 17:37:20;;;;;;;12.80;6.67;;;12.00;99.90;;;;;;5010024;28;20450;-46
2021/04/01 17:39:47;;;;;;;6.97;4.30;;;12.00;99.90;;;;;;5015267;28;20438;-48
2021/04/01 17:42:14;;;;;;;9.23;5.80;;;12.00;99.90;;;;;;5015159;28;20518;-47
2021/04/01 17:44:42;;;;;;;11.10;6.40;;;11.90;99.90;;;;;;5015515;28;20496;-44
2021/04/01 17:47:10;;;;;;;12.20;8.67;;;11.80;99.90;;;;;;5014267;28;20457;-49
2021/04/01 17:49:36;;;;;;;10.80;6.37;;;11.80;99.90;;;;;;5013917;28;20481;-55
2021/04/01 17:52:03;;;;;;;9.37;5.70;;;11.70;99.90;;;;;;5014940;28;20458;-49
2021/04/01 17:54:29;;;;;;;9.33;5.80;;;11.60;99.90;;;;;;5015324;28;20454;-53
2021/04/01 17:56:57;;;;;;;13.33;6.80;;;11.60;99.90;;;;;;5014835;28;20458;-54
2021/04/01 17:59:28;;;;;;;13.37;6.83;;;11.60;99.90;;;;;;5014924;28;20429;-49
2021/04/01 18:01:54;;;;;;;16.30;6.67;;;11.60;99.90;;;;;;5005283;28;20450;-46
2021/04/01 18:04:41;;;;;;;6.30;4.27;;;11.60;99.90;;;;;;5001741;28;20513;-49
2021/04/01 18:23:56;;;;;;;9.60;5.90;;;11.10;99.90;;;;;;4998928;28;20472;-50
2021/04/01 18:26:26;;;;;;;10.80;6.50;;;10.90;99.90;;;;;;4986490;28;20444;-52
2021/04/01 18:28:56;;;;;;;7.37;5.80;;;10.80;99.90;;;;;;4997745;28;20516;-47
2021/04/01 18:34:13;;;;;;;10.63;5.60;;;10.80;99.90;;;;;;4998068;28;20452;-47